sensor_id;sensor_type;location;lat;lon;timestamp;P1;durP1;ratioP1;P2;durP2;ratioP2
65315;SDS011;51920;53.952;10.292;2023-09-19T00:01:34;3.17;;;1.80;;
65315;SDS011;51920;53.952;10.292;2023-09-19T00:04:01;3.58;;;1.80;;
65315;SDS011;51920;53.952;10.292;2023-09-19T00:06:29;2.73;;;1.80;;
65315;SDS011;51920;53.952;10.292;2023-09-19T00:08:57;2.35;;;1.90;;
65315;SDS011;51920;53.952;10.292;2023-09-19T00:11:27;3.08;;;1.70;;
65315;SDS011;51920;53.952;10.292;2023-09-19T00:13:53;3.53;;;1.85;;
65315;SDS011;51920;53.952;10.292;2023-09-19T00:16:20;4.10;;;1.90;;
65315;SDS011;51920;53.952;10.292;2023-09-19T00:18:47;4.33;;;2.17;;
65315;SDS011;51920;53.952;10.292;2023-09-19T00:21:15;2.58;;;2.00;;
65315;SDS011;51920;53.952;10.292;2023-09-19T00:23:41;3.20;;;1.90;;
65315;SDS011;51920;53.952;10.292;2023-09-19T00:26:08;3.08;;;2.03;;
65315;SDS011;51920;53.952;10.292;2023-09-19T00:28:35;4.85;;;2.40;;
65315;SDS011;51920;53.952;10.292;2023-09-19T00:31:02;4.57;;;2.00;;
65315;SDS011;51920;53.952;10.292;2023-09-19T00:33:30;4.70;;;2.03;;
65315;SDS011;51920;53.952;10.292;2023-09-19T00:35:57;4.75;;;2.20;;
65315;SDS011;51920;53.952;10.292;2023-09-19T00:38:24;2.60;;;2.05;;
65315;SDS011;51920;53.952;10.292;2023-09-19T00:40:53;4.70;;;2.17;;
65315;SDS011;51920;53.952;10.292;2023-09-19T00:43:21;3.20;;;1.93;;
65315;SDS011;51920;53.952;10.292;2023-09-19T00:45:52;8.07;;;2.20;;
65315;SDS011;51920;53.952;10.292;2023-09-19T00:48:21;4.72;;;2.42;;
65315;SDS011;51920;53.952;10.292;2023-09-19T00:50:49;3.90;;;2.50;;
65315;SDS011;51920;53.952;10.292;2023-09-19T00:53:17;3.97;;;2.30;;
65315;SDS011;51920;53.952;10.292;2023-09-19T00:55:47;3.93;;;2.40;;
65315;SDS011;51920;53.952;10.292;2023-09-19T00:58:14;5.47;;;2.30;;
65315;SDS011;51920;53.952;10.292;2023-09-19T01:00:44;3.92;;;2.70;;
65315;SDS011;51920;53.952;10.292;2023-09-19T01:03:11;3.40;;;2.20;;
65315;SDS011;51920;53.952;10.292;2023-09-19T01:05:39;5.10;;;2.75;;
65315;SDS011;51920;53.952;10.292;2023-09-19T01:08:06;3.33;;;2.23;;
65315;SDS011;51920;53.952;10.292;2023-09-19T01:10:33;3.05;;;2.40;;
65315;SDS011;51920;53.952;10.292;2023-09-19T01:13:05;5.25;;;2.40;;
65315;SDS011;51920;53.952;10.292;2023-09-19T01:18:16;4.00;;;2.42;;
65315;SDS011;51920;53.952;10.292;2023-09-19T01:26:28;4.47;;;2.40;;
65315;SDS011;51920;53.952;10.292;2023-09-19T01:31:40;6.43;;;2.70;;
65315;SDS011;51920;53.952;10.292;2023-09-19T01:34:09;4.10;;;2.40;;
65315;SDS011;51920;53.952;10.292;2023-09-19T01:36:36;5.90;;;2.78;;
65315;SDS011;51920;53.952;10.292;2023-09-19T01:39:07;5.25;;;2.75;;
65315;SDS011;51920;53.952;10.292;2023-09-19T01:41:55;5.95;;;2.70;;
65315;SDS011;51920;53.952;10.292;2023-09-19T01:47:55;4.30;;;2.50;;
65315;SDS011;51920;53.952;10.292;2023-09-19T01:52:54;3.53;;;2.70;;
65315;SDS011;51920;53.952;10.292;2023-09-19T01:55:27;6.18;;;2.80;;
65315;SDS011;51920;53.952;10.292;2023-09-19T01:58:01;4.70;;;2.80;;
65315;SDS011;51920;53.952;10.292;2023-09-19T02:00:34;6.10;;;2.90;;
65315;SDS011;51920;53.952;10.292;2023-09-19T02:03:03;6.03;;;3.20;;
65315;SDS011;51920;53.952;10.292;2023-09-19T02:05:30;6.60;;;2.90;;
65315;SDS011;51920;53.952;10.292;2023-09-19T02:07:57;6.72;;;3.38;;
65315;SDS011;51920;53.952;10.292;2023-09-19T02:10:25;4.13;;;2.70;;
65315;SDS011;51920;53.952;10.292;2023-09-19T02:12:51;4.97;;;2.90;;
65315;SDS011;51920;53.952;10.292;2023-09-19T02:15:18;5.78;;;3.10;;
65315;SDS011;51920;53.952;10.292;2023-09-19T02:17:45;5.70;;;2.90;;
65315;SDS011;51920;53.952;10.292;2023-09-19T02:20:13;7.22;;;2.60;;
65315;SDS011;51920;53.952;10.292;2023-09-19T02:22:43;4.30;;;2.80;;
65315;SDS011;51920;53.952;10.292;2023-09-19T02:25:10;4.33;;;2.80;;
65315;SDS011;51920;53.952;10.292;2023-09-19T02:27:37;5.80;;;3.00;;
65315;SDS011;51920;53.952;10.292;2023-09-19T02:30:04;4.85;;;2.80;;
65315;SDS011;51920;53.952;10.292;2023-09-19T02:32:32;5.68;;;2.90;;
65315;SDS011;51920;53.952;10.292;2023-09-19T02:35:02;5.32;;;2.92;;
65315;SDS011;51920;53.952;10.292;2023-09-19T02:37:31;5.13;;;2.77;;
65315;SDS011;51920;53.952;10.292;2023-09-19T02:39:58;4.90;;;2.90;;
65315;SDS011;51920;53.952;10.292;2023-09-19T02:42:25;5.35;;;3.10;;
65315;SDS011;51920;53.952;10.292;2023-09-19T02:44:52;4.72;;;2.60;;
65315;SDS011;51920;53.952;10.292;2023-09-19T02:47:19;5.97;;;2.80;;
65315;SDS011;51920;53.952;10.292;2023-09-19T02:49:46;5.10;;;2.60;;
65315;SDS011;51920;53.952;10.292;2023-09-19T02:52:13;7.15;;;3.13;;
65315;SDS011;51920;53.952;10.292;2023-09-19T02:54:40;4.47;;;2.70;;
65315;SDS011;51920;53.952;10.292;2023-09-19T02:57:08;3.63;;;2.70;;
65315;SDS011;51920;53.952;10.292;2023-09-19T02:59:36;4.68;;;2.70;;
65315;SDS011;51920;53.952;10.292;2023-09-19T03:02:03;6.17;;;2.63;;
65315;SDS011;51920;53.952;10.292;2023-09-19T03:04:31;6.20;;;2.60;;
65315;SDS011;51920;53.952;10.292;2023-09-19T03:06:59;4.82;;;2.45;;
65315;SDS011;51920;53.952;10.292;2023-09-19T03:09:27;6.13;;;2.35;;
65315;SDS011;51920;53.952;10.292;2023-09-19T03:11:54;5.53;;;2.42;;
65315;SDS011;51920;53.952;10.292;2023-09-19T03:14:21;4.80;;;2.37;;
65315;SDS011;51920;53.952;10.292;2023-09-19T03:16:47;6.10;;;2.40;;
65315;SDS011;51920;53.952;10.292;2023-09-19T03:19:14;3.88;;;2.15;;
65315;SDS011;51920;53.952;10.292;2023-09-19T03:21:42;5.22;;;2.33;;
65315;SDS011;51920;53.952;10.292;2023-09-19T03:24:08;5.50;;;2.10;;
65315;SDS011;51920;53.952;10.292;2023-09-19T03:26:35;5.40;;;2.10;;
65315;SDS011;51920;53.952;10.292;2023-09-19T03:29:05;4.85;;;2.00;;
65315;SDS011;51920;53.952;10.292;2023-09-19T03:31:33;4.28;;;2.40;;
65315;SDS011;51920;53.952;10.292;2023-09-19T03:34:03;3.22;;;1.90;;
65315;SDS011;51920;53.952;10.292;2023-09-19T03:36:30;4.47;;;1.98;;
65315;SDS011;51920;53.952;10.292;2023-09-19T03:39:00;3.63;;;2.10;;
65315;SDS011;51920;53.952;10.292;2023-09-19T03:41:28;4.57;;;2.13;;
65315;SDS011;51920;53.952;10.292;2023-09-19T03:43:56;4.13;;;2.15;;
65315;SDS011;51920;53.952;10.292;2023-09-19T03:46:23;3.80;;;2.00;;
65315;SDS011;51920;53.952;10.292;2023-09-19T03:48:49;2.72;;;2.03;;
65315;SDS011;51920;53.952;10.292;2023-09-19T03:51:16;4.07;;;1.70;;
65315;SDS011;51920;53.952;10.292;2023-09-19T03:53:43;4.30;;;1.92;;
65315;SDS011;51920;53.952;10.292;2023-09-19T03:56:10;5.93;;;1.90;;
65315;SDS011;51920;53.952;10.292;2023-09-19T03:58:36;3.70;;;1.90;;
65315;SDS011;51920;53.952;10.292;2023-09-19T04:01:06;5.68;;;2.10;;
65315;SDS011;51920;53.952;10.292;2023-09-19T04:03:36;5.20;;;1.77;;
65315;SDS011;51920;53.952;10.292;2023-09-19T04:06:13;4.18;;;1.92;;
65315;SDS011;51920;53.952;10.292;2023-09-19T04:08:40;4.40;;;1.73;;
65315;SDS011;51920;53.952;10.292;2023-09-19T04:11:07;4.75;;;1.90;;
65315;SDS011;51920;53.952;10.292;2023-09-19T04:13:35;3.78;;;2.10;;
65315;SDS011;51920;53.952;10.292;2023-09-19T04:16:02;5.17;;;2.00;;
65315;SDS011;51920;53.952;10.292;2023-09-19T04:18:37;7.07;;;2.50;;
65315;SDS011;51920;53.952;10.292;2023-09-19T04:21:05;5.90;;;2.13;;
65315;SDS011;51920;53.952;10.292;2023-09-19T04:23:32;4.57;;;1.77;;
65315;SDS011;51920;53.952;10.292;2023-09-19T04:25:59;4.80;;;1.98;;
65315;SDS011;51920;53.952;10.292;2023-09-19T04:28:26;4.23;;;1.70;;
65315;SDS011;51920;53.952;10.292;2023-09-19T04:30:54;4.95;;;1.88;;
65315;SDS011;51920;53.952;10.292;2023-09-19T04:33:21;3.85;;;2.00;;
65315;SDS011;51920;53.952;10.292;2023-09-19T04:35:51;3.92;;;1.75;;
65315;SDS011;51920;53.952;10.292;2023-09-19T04:38:18;4.63;;;2.10;;
65315;SDS011;51920;53.952;10.292;2023-09-19T04:40:46;4.80;;;1.70;;
65315;SDS011;51920;53.952;10.292;2023-09-19T04:43:12;4.63;;;1.90;;
65315;SDS011;51920;53.952;10.292;2023-09-19T04:45:39;7.68;;;1.80;;
65315;SDS011;51920;53.952;10.292;2023-09-19T04:48:10;5.35;;;1.70;;
65315;SDS011;51920;53.952;10.292;2023-09-19T04:50:37;6.03;;;1.90;;
65315;SDS011;51920;53.952;10.292;2023-09-19T04:53:04;6.07;;;1.93;;
65315;SDS011;51920;53.952;10.292;2023-09-19T04:55:31;5.95;;;1.77;;
65315;SDS011;51920;53.952;10.292;2023-09-19T04:57:59;4.75;;;1.98;;
65315;SDS011;51920;53.952;10.292;2023-09-19T05:00:25;5.03;;;1.83;;
65315;SDS011;51920;53.952;10.292;2023-09-19T05:02:55;5.47;;;1.95;;
65315;SDS011;51920;53.952;10.292;2023-09-19T05:05:23;6.47;;;1.67;;
65315;SDS011;51920;53.952;10.292;2023-09-19T05:07:51;4.30;;;1.63;;
65315;SDS011;51920;53.952;10.292;2023-09-19T05:10:20;3.97;;;2.05;;
65315;SDS011;51920;53.952;10.292;2023-09-19T05:12:47;5.63;;;1.70;;
65315;SDS011;51920;53.952;10.292;2023-09-19T05:15:14;5.28;;;1.83;;
65315;SDS011;51920;53.952;10.292;2023-09-19T05:17:49;4.50;;;1.70;;
65315;SDS011;51920;53.952;10.292;2023-09-19T05:20:43;4.97;;;1.92;;
65315;SDS011;51920;53.952;10.292;2023-09-19T05:23:10;5.82;;;2.00;;
65315;SDS011;51920;53.952;10.292;2023-09-19T05:25:39;6.18;;;2.10;;
65315;SDS011;51920;53.952;10.292;2023-09-19T05:28:06;7.95;;;1.85;;
65315;SDS011;51920;53.952;10.292;2023-09-19T05:30:35;3.87;;;1.80;;
65315;SDS011;51920;53.952;10.292;2023-09-19T05:33:02;3.42;;;1.67;;
65315;SDS011;51920;53.952;10.292;2023-09-19T05:35:30;4.53;;;1.90;;
65315;SDS011;51920;53.952;10.292;2023-09-19T05:37:57;5.18;;;1.88;;
65315;SDS011;51920;53.952;10.292;2023-09-19T05:40:24;6.60;;;1.90;;
65315;SDS011;51920;53.952;10.292;2023-09-19T05:42:51;4.07;;;1.77;;
65315;SDS011;51920;53.952;10.292;2023-09-19T05:45:18;7.13;;;1.85;;
65315;SDS011;51920;53.952;10.292;2023-09-19T05:47:49;6.38;;;1.70;;
65315;SDS011;51920;53.952;10.292;2023-09-19T05:50:17;4.43;;;1.88;;
65315;SDS011;51920;53.952;10.292;2023-09-19T05:52:50;3.72;;;1.90;;
65315;SDS011;51920;53.952;10.292;2023-09-19T05:55:18;5.13;;;1.80;;
65315;SDS011;51920;53.952;10.292;2023-09-19T05:57:50;5.45;;;1.90;;
65315;SDS011;51920;53.952;10.292;2023-09-19T06:00:21;7.22;;;1.70;;
65315;SDS011;51920;53.952;10.292;2023-09-19T06:02:50;6.78;;;1.88;;
65315;SDS011;51920;53.952;10.292;2023-09-19T06:05:20;5.63;;;1.70;;
65315;SDS011;51920;53.952;10.292;2023-09-19T06:07:47;3.43;;;1.60;;
65315;SDS011;51920;53.952;10.292;2023-09-19T06:10:14;8.57;;;1.67;;
65315;SDS011;51920;53.952;10.292;2023-09-19T06:12:41;4.15;;;1.67;;
65315;SDS011;51920;53.952;10.292;2023-09-19T06:15:12;5.63;;;1.60;;
65315;SDS011;51920;53.952;10.292;2023-09-19T06:17:52;5.93;;;1.75;;
65315;SDS011;51920;53.952;10.292;2023-09-19T06:20:24;4.33;;;1.50;;
65315;SDS011;51920;53.952;10.292;2023-09-19T06:22:52;5.38;;;1.70;;
65315;SDS011;51920;53.952;10.292;2023-09-19T06:25:20;3.13;;;1.30;;
65315;SDS011;51920;53.952;10.292;2023-09-19T06:27:50;5.60;;;1.48;;
65315;SDS011;51920;53.952;10.292;2023-09-19T06:30:22;4.93;;;1.85;;
65315;SDS011;51920;53.952;10.292;2023-09-19T06:32:58;7.43;;;1.70;;
65315;SDS011;51920;53.952;10.292;2023-09-19T06:35:26;5.03;;;1.70;;
65315;SDS011;51920;53.952;10.292;2023-09-19T06:37:53;7.30;;;1.60;;
65315;SDS011;51920;53.952;10.292;2023-09-19T06:40:20;4.85;;;1.60;;
65315;SDS011;51920;53.952;10.292;2023-09-19T06:42:49;5.40;;;1.70;;
65315;SDS011;51920;53.952;10.292;2023-09-19T06:45:17;4.30;;;1.57;;
65315;SDS011;51920;53.952;10.292;2023-09-19T06:47:45;7.53;;;1.85;;
65315;SDS011;51920;53.952;10.292;2023-09-19T06:50:19;4.78;;;1.70;;
65315;SDS011;51920;53.952;10.292;2023-09-19T06:52:49;8.02;;;1.70;;
65315;SDS011;51920;53.952;10.292;2023-09-19T06:55:18;4.15;;;1.73;;
65315;SDS011;51920;53.952;10.292;2023-09-19T06:57:46;8.20;;;1.97;;
65315;SDS011;51920;53.952;10.292;2023-09-19T07:00:14;6.50;;;1.80;;
65315;SDS011;51920;53.952;10.292;2023-09-19T07:02:57;5.72;;;1.80;;
65315;SDS011;51920;53.952;10.292;2023-09-19T07:05:27;3.88;;;1.63;;
65315;SDS011;51920;53.952;10.292;2023-09-19T07:07:54;4.88;;;1.63;;
65315;SDS011;51920;53.952;10.292;2023-09-19T07:10:26;6.47;;;1.50;;
65315;SDS011;51920;53.952;10.292;2023-09-19T07:12:57;4.55;;;1.70;;
65315;SDS011;51920;53.952;10.292;2023-09-19T07:15:25;5.43;;;1.67;;
65315;SDS011;51920;53.952;10.292;2023-09-19T07:17:53;3.53;;;1.65;;
65315;SDS011;51920;53.952;10.292;2023-09-19T07:20:20;3.22;;;1.52;;
65315;SDS011;51920;53.952;10.292;2023-09-19T07:22:47;6.47;;;1.70;;
65315;SDS011;51920;53.952;10.292;2023-09-19T07:25:14;7.32;;;1.85;;
65315;SDS011;51920;53.952;10.292;2023-09-19T07:27:41;6.05;;;1.88;;
65315;SDS011;51920;53.952;10.292;2023-09-19T07:30:08;6.40;;;1.70;;
65315;SDS011;51920;53.952;10.292;2023-09-19T07:32:35;5.63;;;1.75;;
65315;SDS011;51920;53.952;10.292;2023-09-19T07:35:05;4.50;;;1.80;;
65315;SDS011;51920;53.952;10.292;2023-09-19T07:37:32;4.75;;;1.73;;
65315;SDS011;51920;53.952;10.292;2023-09-19T07:40:02;4.45;;;1.70;;
65315;SDS011;51920;53.952;10.292;2023-09-19T07:42:36;4.65;;;1.67;;
65315;SDS011;51920;53.952;10.292;2023-09-19T07:45:05;4.68;;;1.70;;
65315;SDS011;51920;53.952;10.292;2023-09-19T07:47:32;6.23;;;2.00;;
65315;SDS011;51920;53.952;10.292;2023-09-19T07:49:59;7.00;;;1.70;;
65315;SDS011;51920;53.952;10.292;2023-09-19T07:52:28;4.20;;;1.63;;
65315;SDS011;51920;53.952;10.292;2023-09-19T07:54:55;7.65;;;1.80;;
65315;SDS011;51920;53.952;10.292;2023-09-19T07:57:23;4.30;;;1.60;;
65315;SDS011;51920;53.952;10.292;2023-09-19T07:59:51;6.27;;;1.73;;
65315;SDS011;51920;53.952;10.292;2023-09-19T08:02:18;8.05;;;1.90;;
65315;SDS011;51920;53.952;10.292;2023-09-19T08:04:45;6.22;;;1.85;;
65315;SDS011;51920;53.952;10.292;2023-09-19T08:07:15;5.18;;;1.70;;
65315;SDS011;51920;53.952;10.292;2023-09-19T08:09:42;7.55;;;1.80;;
65315;SDS011;51920;53.952;10.292;2023-09-19T08:12:12;5.97;;;1.90;;
65315;SDS011;51920;53.952;10.292;2023-09-19T08:14:39;6.88;;;1.88;;
65315;SDS011;51920;53.952;10.292;2023-09-19T08:17:07;8.10;;;2.10;;
65315;SDS011;51920;53.952;10.292;2023-09-19T08:19:34;7.55;;;2.03;;
65315;SDS011;51920;53.952;10.292;2023-09-19T08:22:02;8.30;;;2.10;;
65315;SDS011;51920;53.952;10.292;2023-09-19T08:24:29;5.67;;;1.90;;
65315;SDS011;51920;53.952;10.292;2023-09-19T08:26:57;5.28;;;2.20;;
65315;SDS011;51920;53.952;10.292;2023-09-19T08:29:24;7.43;;;2.10;;
65315;SDS011;51920;53.952;10.292;2023-09-19T08:31:54;5.97;;;1.92;;
65315;SDS011;51920;53.952;10.292;2023-09-19T08:34:25;6.05;;;2.00;;
65315;SDS011;51920;53.952;10.292;2023-09-19T08:36:52;6.30;;;2.10;;
65315;SDS011;51920;53.952;10.292;2023-09-19T08:39:23;6.35;;;2.10;;
65315;SDS011;51920;53.952;10.292;2023-09-19T08:41:59;7.28;;;2.22;;
65315;SDS011;51920;53.952;10.292;2023-09-19T08:44:27;5.45;;;2.00;;
65315;SDS011;51920;53.952;10.292;2023-09-19T08:47:01;4.45;;;1.90;;
65315;SDS011;51920;53.952;10.292;2023-09-19T08:49:41;6.07;;;2.13;;
65315;SDS011;51920;53.952;10.292;2023-09-19T08:52:48;5.03;;;1.90;;
65315;SDS011;51920;53.952;10.292;2023-09-19T08:55:22;7.25;;;2.00;;
65315;SDS011;51920;53.952;10.292;2023-09-19T08:57:56;5.38;;;2.00;;
65315;SDS011;51920;53.952;10.292;2023-09-19T09:00:28;6.47;;;2.03;;
65315;SDS011;51920;53.952;10.292;2023-09-19T09:02:55;4.13;;;1.70;;
65315;SDS011;51920;53.952;10.292;2023-09-19T09:05:23;6.68;;;2.00;;
65315;SDS011;51920;53.952;10.292;2023-09-19T09:07:50;5.13;;;1.80;;
65315;SDS011;51920;53.952;10.292;2023-09-19T09:10:18;5.72;;;1.83;;
65315;SDS011;51920;53.952;10.292;2023-09-19T09:12:50;6.82;;;1.95;;
65315;SDS011;51920;53.952;10.292;2023-09-19T09:15:18;9.93;;;2.00;;
65315;SDS011;51920;53.952;10.292;2023-09-19T09:17:51;7.95;;;2.10;;
65315;SDS011;51920;53.952;10.292;2023-09-19T09:20:21;6.88;;;2.20;;
65315;SDS011;51920;53.952;10.292;2023-09-19T09:22:55;8.52;;;2.53;;
65315;SDS011;51920;53.952;10.292;2023-09-19T09:28:24;5.43;;;2.10;;
65315;SDS011;51920;53.952;10.292;2023-09-19T09:30:51;5.95;;;2.30;;
65315;SDS011;51920;53.952;10.292;2023-09-19T09:33:18;6.13;;;2.10;;
65315;SDS011;51920;53.952;10.292;2023-09-19T09:38:18;5.03;;;1.90;;
65315;SDS011;51920;53.952;10.292;2023-09-19T09:40:46;5.73;;;2.10;;
65315;SDS011;51920;53.952;10.292;2023-09-19T09:43:26;7.28;;;2.05;;
65315;SDS011;51920;53.952;10.292;2023-09-19T09:46:07;7.55;;;1.70;;
65315;SDS011;51920;53.952;10.292;2023-09-19T09:49:05;7.85;;;1.75;;
65315;SDS011;51920;53.952;10.292;2023-09-19T09:51:58;6.55;;;2.15;;
65315;SDS011;51920;53.952;10.292;2023-09-19T09:54:33;5.23;;;1.67;;
65315;SDS011;51920;53.952;10.292;2023-09-19T09:57:07;6.13;;;1.80;;
65315;SDS011;51920;53.952;10.292;2023-09-19T10:02:18;7.45;;;1.80;;
65315;SDS011;51920;53.952;10.292;2023-09-19T10:04:55;6.97;;;1.90;;
65315;SDS011;51920;53.952;10.292;2023-09-19T10:07:33;5.80;;;2.00;;
65315;SDS011;51920;53.952;10.292;2023-09-19T10:10:08;6.97;;;1.83;;
65315;SDS011;51920;53.952;10.292;2023-09-19T10:12:47;6.82;;;1.95;;
65315;SDS011;51920;53.952;10.292;2023-09-19T10:15:18;6.30;;;1.63;;
65315;SDS011;51920;53.952;10.292;2023-09-19T10:17:51;4.70;;;1.70;;
65315;SDS011;51920;53.952;10.292;2023-09-19T10:20:20;6.73;;;1.70;;
65315;SDS011;51920;53.952;10.292;2023-09-19T10:23:00;5.82;;;1.65;;
65315;SDS011;51920;53.952;10.292;2023-09-19T10:25:28;7.85;;;1.60;;
65315;SDS011;51920;53.952;10.292;2023-09-19T10:27:55;6.55;;;1.70;;
65315;SDS011;51920;53.952;10.292;2023-09-19T10:30:24;6.35;;;1.85;;
65315;SDS011;51920;53.952;10.292;2023-09-19T10:32:57;7.80;;;1.53;;
65315;SDS011;51920;53.952;10.292;2023-09-19T10:35:26;5.35;;;1.42;;
65315;SDS011;51920;53.952;10.292;2023-09-19T10:37:54;8.85;;;2.00;;
65315;SDS011;51920;53.952;10.292;2023-09-19T10:40:23;6.55;;;1.73;;
65315;SDS011;51920;53.952;10.292;2023-09-19T10:42:59;5.45;;;1.50;;
65315;SDS011;51920;53.952;10.292;2023-09-19T10:45:29;4.20;;;1.50;;
65315;SDS011;51920;53.952;10.292;2023-09-19T10:47:58;5.95;;;1.50;;
65315;SDS011;51920;53.952;10.292;2023-09-19T10:50:27;6.00;;;1.63;;
65315;SDS011;51920;53.952;10.292;2023-09-19T10:52:59;7.32;;;1.60;;
65315;SDS011;51920;53.952;10.292;2023-09-19T10:55:32;6.60;;;1.58;;
65315;SDS011;51920;53.952;10.292;2023-09-19T10:58:01;4.47;;;1.53;;
65315;SDS011;51920;53.952;10.292;2023-09-19T11:00:55;5.65;;;1.50;;
65315;SDS011;51920;53.952;10.292;2023-09-19T11:03:28;6.25;;;1.60;;
65315;SDS011;51920;53.952;10.292;2023-09-19T11:06:05;5.57;;;1.63;;
65315;SDS011;51920;53.952;10.292;2023-09-19T11:08:52;5.80;;;1.70;;
65315;SDS011;51920;53.952;10.292;2023-09-19T11:11:43;5.50;;;1.60;;
65315;SDS011;51920;53.952;10.292;2023-09-19T11:26:00;6.23;;;1.50;;
65315;SDS011;51920;53.952;10.292;2023-09-19T11:30:32;6.65;;;1.70;;
65315;SDS011;51920;53.952;10.292;2023-09-19T11:39:26;5.97;;;1.70;;
65315;SDS011;51920;53.952;10.292;2023-09-19T11:41:58;3.78;;;1.60;;
65315;SDS011;51920;53.952;10.292;2023-09-19T11:44:32;4.38;;;1.73;;
65315;SDS011;51920;53.952;10.292;2023-09-19T11:47:00;4.30;;;1.73;;
65315;SDS011;51920;53.952;10.292;2023-09-19T11:49:30;7.60;;;1.90;;
65315;SDS011;51920;53.952;10.292;2023-09-19T11:51:59;4.37;;;1.77;;
65315;SDS011;51920;53.952;10.292;2023-09-19T11:54:27;5.30;;;1.88;;
65315;SDS011;51920;53.952;10.292;2023-09-19T11:56:58;6.13;;;1.60;;
65315;SDS011;51920;53.952;10.292;2023-09-19T11:59:29;4.72;;;1.70;;
65315;SDS011;51920;53.952;10.292;2023-09-19T12:01:57;5.72;;;1.90;;
65315;SDS011;51920;53.952;10.292;2023-09-19T12:04:33;6.30;;;1.50;;
65315;SDS011;51920;53.952;10.292;2023-09-19T12:10:27;6.78;;;1.98;;
65315;SDS011;51920;53.952;10.292;2023-09-19T12:13:10;5.10;;;2.20;;
65315;SDS011;51920;53.952;10.292;2023-09-19T12:16:17;8.75;;;2.60;;
65315;SDS011;51920;53.952;10.292;2023-09-19T12:19:23;6.40;;;2.10;;
65315;SDS011;51920;53.952;10.292;2023-09-19T12:21:54;6.05;;;1.90;;
65315;SDS011;51920;53.952;10.292;2023-09-19T12:24:25;6.68;;;1.90;;
65315;SDS011;51920;53.952;10.292;2023-09-19T12:27:05;8.57;;;2.15;;
65315;SDS011;51920;53.952;10.292;2023-09-19T12:29:46;5.07;;;1.90;;
65315;SDS011;51920;53.952;10.292;2023-09-19T12:32:35;5.80;;;2.10;;
65315;SDS011;51920;53.952;10.292;2023-09-19T12:35:02;5.88;;;2.10;;
65315;SDS011;51920;53.952;10.292;2023-09-19T12:37:33;6.43;;;2.28;;
65315;SDS011;51920;53.952;10.292;2023-09-19T12:40:08;6.20;;;2.40;;
65315;SDS011;51920;53.952;10.292;2023-09-19T12:42:48;7.03;;;2.13;;
65315;SDS011;51920;53.952;10.292;2023-09-19T12:53:26;6.53;;;2.35;;
65315;SDS011;51920;53.952;10.292;2023-09-19T12:55:58;5.43;;;2.20;;
65315;SDS011;51920;53.952;10.292;2023-09-19T12:58:36;4.85;;;2.00;;
65315;SDS011;51920;53.952;10.292;2023-09-19T13:05:53;4.38;;;2.10;;
65315;SDS011;51920;53.952;10.292;2023-09-19T13:08:34;6.47;;;2.00;;
65315;SDS011;51920;53.952;10.292;2023-09-19T13:11:35;5.95;;;2.30;;
65315;SDS011;51920;53.952;10.292;2023-09-19T13:14:18;6.60;;;2.38;;
65315;SDS011;51920;53.952;10.292;2023-09-19T13:16:55;7.50;;;2.20;;
65315;SDS011;51920;53.952;10.292;2023-09-19T13:19:40;7.88;;;2.20;;
65315;SDS011;51920;53.952;10.292;2023-09-19T13:25:10;5.20;;;1.90;;
65315;SDS011;51920;53.952;10.292;2023-09-19T13:27:45;5.72;;;2.10;;
65315;SDS011;51920;53.952;10.292;2023-09-19T13:30:18;4.97;;;1.90;;
65315;SDS011;51920;53.952;10.292;2023-09-19T13:32:45;5.25;;;2.28;;
65315;SDS011;51920;53.952;10.292;2023-09-19T13:35:14;6.15;;;2.25;;
65315;SDS011;51920;53.952;10.292;2023-09-19T13:37:42;7.22;;;2.20;;
65315;SDS011;51920;53.952;10.292;2023-09-19T13:40:10;5.28;;;2.00;;
65315;SDS011;51920;53.952;10.292;2023-09-19T13:42:38;9.13;;;2.50;;
65315;SDS011;51920;53.952;10.292;2023-09-19T13:45:05;7.47;;;2.20;;
65315;SDS011;51920;53.952;10.292;2023-09-19T13:47:32;7.07;;;2.17;;
65315;SDS011;51920;53.952;10.292;2023-09-19T13:49:59;5.47;;;2.28;;
65315;SDS011;51920;53.952;10.292;2023-09-19T13:52:30;6.57;;;2.30;;
65315;SDS011;51920;53.952;10.292;2023-09-19T13:54:58;5.40;;;2.10;;
65315;SDS011;51920;53.952;10.292;2023-09-19T13:57:25;4.95;;;1.90;;
65315;SDS011;51920;53.952;10.292;2023-09-19T13:59:53;8.25;;;2.40;;
65315;SDS011;51920;53.952;10.292;2023-09-19T14:02:21;7.15;;;2.30;;
65315;SDS011;51920;53.952;10.292;2023-09-19T14:04:51;5.63;;;2.17;;
65315;SDS011;51920;53.952;10.292;2023-09-19T14:07:18;5.07;;;2.20;;
65315;SDS011;51920;53.952;10.292;2023-09-19T14:09:46;5.72;;;2.35;;
65315;SDS011;51920;53.952;10.292;2023-09-19T14:12:22;5.57;;;1.98;;
65315;SDS011;51920;53.952;10.292;2023-09-19T14:14:49;5.75;;;2.25;;
65315;SDS011;51920;53.952;10.292;2023-09-19T14:17:17;5.45;;;2.00;;
65315;SDS011;51920;53.952;10.292;2023-09-19T14:19:44;5.27;;;2.07;;
65315;SDS011;51920;53.952;10.292;2023-09-19T14:22:11;8.15;;;2.10;;
65315;SDS011;51920;53.952;10.292;2023-09-19T14:24:40;4.97;;;2.17;;
65315;SDS011;51920;53.952;10.292;2023-09-19T14:27:07;4.40;;;1.70;;
65315;SDS011;51920;53.952;10.292;2023-09-19T14:29:35;4.88;;;2.00;;
65315;SDS011;51920;53.952;10.292;2023-09-19T14:32:02;6.93;;;1.97;;
65315;SDS011;51920;53.952;10.292;2023-09-19T14:34:29;3.72;;;1.80;;
65315;SDS011;51920;53.952;10.292;2023-09-19T14:36:56;5.72;;;1.90;;
65315;SDS011;51920;53.952;10.292;2023-09-19T14:39:23;4.35;;;2.00;;
65315;SDS011;51920;53.952;10.292;2023-09-19T14:41:49;6.30;;;1.77;;
65315;SDS011;51920;53.952;10.292;2023-09-19T14:44:16;4.23;;;1.63;;
65315;SDS011;51920;53.952;10.292;2023-09-19T14:46:43;5.80;;;2.13;;
65315;SDS011;51920;53.952;10.292;2023-09-19T14:49:11;6.40;;;2.10;;
65315;SDS011;51920;53.952;10.292;2023-09-19T14:51:38;4.57;;;1.88;;
65315;SDS011;51920;53.952;10.292;2023-09-19T14:54:06;5.88;;;1.73;;
65315;SDS011;51920;53.952;10.292;2023-09-19T14:56:34;5.20;;;1.67;;
65315;SDS011;51920;53.952;10.292;2023-09-19T14:59:01;6.32;;;2.00;;
65315;SDS011;51920;53.952;10.292;2023-09-19T15:01:29;5.72;;;2.00;;
65315;SDS011;51920;53.952;10.292;2023-09-19T15:03:56;4.50;;;1.80;;
65315;SDS011;51920;53.952;10.292;2023-09-19T15:06:23;8.43;;;1.70;;
65315;SDS011;51920;53.952;10.292;2023-09-19T15:08:50;4.83;;;1.87;;
65315;SDS011;51920;53.952;10.292;2023-09-19T15:11:18;4.05;;;1.67;;
65315;SDS011;51920;53.952;10.292;2023-09-19T15:13:46;5.70;;;1.90;;
65315;SDS011;51920;53.952;10.292;2023-09-19T15:16:13;4.78;;;2.00;;
65315;SDS011;51920;53.952;10.292;2023-09-19T15:18:41;5.45;;;2.17;;
65315;SDS011;51920;53.952;10.292;2023-09-19T15:21:09;6.17;;;2.00;;
65315;SDS011;51920;53.952;10.292;2023-09-19T15:23:37;6.20;;;2.00;;
65315;SDS011;51920;53.952;10.292;2023-09-19T15:26:05;4.35;;;1.90;;
65315;SDS011;51920;53.952;10.292;2023-09-19T15:28:33;7.85;;;2.10;;
65315;SDS011;51920;53.952;10.292;2023-09-19T15:31:04;5.45;;;1.90;;
65315;SDS011;51920;53.952;10.292;2023-09-19T15:33:33;6.40;;;1.80;;
65315;SDS011;51920;53.952;10.292;2023-09-19T15:36:07;3.47;;;1.60;;
65315;SDS011;51920;53.952;10.292;2023-09-19T15:41:38;5.85;;;1.77;;
65315;SDS011;51920;53.952;10.292;2023-09-19T15:44:16;5.43;;;2.00;;
65315;SDS011;51920;53.952;10.292;2023-09-19T15:46:45;3.37;;;1.70;;
65315;SDS011;51920;53.952;10.292;2023-09-19T15:49:12;5.93;;;1.88;;
65315;SDS011;51920;53.952;10.292;2023-09-19T15:51:39;7.25;;;2.08;;
65315;SDS011;51920;53.952;10.292;2023-09-19T15:54:16;7.10;;;2.00;;
65315;SDS011;51920;53.952;10.292;2023-09-19T15:56:44;5.35;;;2.15;;
65315;SDS011;51920;53.952;10.292;2023-09-19T15:59:13;5.70;;;1.83;;